Time,TemperatureF,DewpointF,PressureIn,WindDirection,WindDirectionDegrees,WindSpeedMPH,WindSpeedGustMPH,Humidity,HourlyPrecipIn,Conditions,Clouds,dailyrainin,SoftwareType,DateUTC
2013-01-15 00:00:00,32.8,24.0,30.15,North,0,2.5,2.5,70,0.00,,,0.00,WUHU216HW,2013-01-15 06:00:00,
2013-01-15 00:05:00,32.8,24.0,30.15,North,0,2.5,2.5,70,0.00,,,0.00,WUHU216HW,2013-01-15 06:05:00,
2013-01-15 00:30:00,32.6,23.9,30.14,ENE,68,2.9,2.9,70,0.00,,,0.00,WUHU216HW,2013-01-15 06:30:00,
2013-01-15 00:35:00,32.6,23.9,30.14,ENE,68,2.9,2.9,70,0.00,,,0.00,WUHU216HW,2013-01-15 06:35:00,
2013-01-15 01:00:00,32.2,23.6,30.14,NE,45,1.8,1.8,70,0.00,,,0.00,WUHU216HW,2013-01-15 07:00:00,
2013-01-15 01:05:00,32.2,23.6,30.14,NE,45,1.8,1.8,70,0.00,,,0.00,WUHU216HW,2013-01-15 07:05:00,
2013-01-15 01:30:00,31.5,23.9,30.12,NNE,23,4.5,4.5,73,0.00,,,0.00,WUHU216HW,2013-01-15 07:30:00,
2013-01-15 01:35:00,31.5,23.9,30.12,NNE,23,4.5,4.5,73,0.00,,,0.00,WUHU216HW,2013-01-15 07:35:00,
2013-01-15 02:00:00,32.0,23.4,30.12,NE,45,4.7,4.7,70,0.00,,,0.00,WUHU216HW,2013-01-15 08:00:00,
2013-01-15 02:05:00,32.0,23.4,30.12,NE,45,4.7,4.7,70,0.00,,,0.00,WUHU216HW,2013-01-15 08:05:00,
2013-01-15 02:30:00,32.6,23.9,30.12,NE,45,4.7,4.7,70,0.00,,,0.00,WUHU216HW,2013-01-15 08:30:00,
2013-01-15 02:35:00,32.6,23.9,30.12,NE,45,4.7,4.7,70,0.00,,,0.00,WUHU216HW,2013-01-15 08:35:00,
2013-01-15 03:00:00,32.8,24.0,30.12,ENE,68,4.0,4.0,70,0.00,,,0.00,WUHU216HW,2013-01-15 09:00:00,
2013-01-15 03:05:00,32.8,24.0,30.12,ENE,68,4.0,4.0,70,0.00,,,0.00,WUHU216HW,2013-01-15 09:05:00,
2013-01-15 03:30:00,32.9,23.9,30.12,NE,45,4.9,4.9,69,0.00,,,0.00,WUHU216HW,2013-01-15 09:30:00,
2013-01-15 03:35:00,32.9,23.9,30.12,NE,45,4.9,4.9,69,0.00,,,0.00,WUHU216HW,2013-01-15 09:35:00,
2013-01-15 04:00:00,32.8,22.2,30.12,North,0,8.3,8.3,65,0.00,,,0.00,WUHU216HW,2013-01-15 10:00:00,
2013-01-15 04:05:00,32.8,22.2,30.12,North,0,8.3,8.3,65,0.00,,,0.00,WUHU216HW,2013-01-15 10:05:00,
2013-01-15 04:30:00,33.1,23.3,30.10,ENE,68,7.6,7.6,67,0.00,,,0.00,WUHU216HW,2013-01-15 10:30:00,
2013-01-15 04:35:00,33.1,23.3,30.10,ENE,68,7.6,7.6,67,0.00,,,0.00,WUHU216HW,2013-01-15 10:35:00,
2013-01-15 05:00:00,33.3,23.9,30.11,NE,45,3.1,3.1,68,0.00,,,0.00,WUHU216HW,2013-01-15 11:00:00,
2013-01-15 05:05:00,33.3,23.9,30.11,NE,45,3.1,3.1,68,0.00,,,0.00,WUHU216HW,2013-01-15 11:05:00,
2013-01-15 05:30:00,33.3,23.9,30.13,NE,45,6.9,6.9,68,0.00,,,0.00,WUHU216HW,2013-01-15 11:30:00,
2013-01-15 05:35:00,33.3,23.9,30.13,NE,45,6.9,6.9,68,0.00,,,0.00,WUHU216HW,2013-01-15 11:35:00,
2013-01-15 06:00:00,32.6,23.9,30.09,NNE,23,8.3,8.3,70,0.00,,,0.00,WUHU216HW,2013-01-15 12:00:00,
2013-01-15 06:05:00,32.6,23.9,30.09,NNE,23,8.3,8.3,70,0.00,,,0.00,WUHU216HW,2013-01-15 12:05:00,
2013-01-15 06:30:00,32.0,24.7,30.14,NNW,338,3.4,3.4,74,0.00,,,0.00,WUHU216HW,2013-01-15 12:30:00,
2013-01-15 06:35:00,32.0,24.7,30.14,NNW,338,3.4,3.4,74,0.00,,,0.00,WUHU216HW,2013-01-15 12:35:00,
2013-01-15 07:00:00,30.2,25.1,30.15,NNW,338,5.8,5.8,81,0.00,,,0.00,WUHU216HW,2013-01-15 13:00:00,
2013-01-15 07:05:00,30.2,25.1,30.15,NNW,338,5.8,5.8,81,0.00,,,0.00,WUHU216HW,2013-01-15 13:05:00,
2013-01-15 07:30:00,29.7,25.5,30.15,NE,45,6.9,6.9,84,0.00,,,0.00,WUHU216HW,2013-01-15 13:30:00,
2013-01-15 07:35:00,29.7,25.5,30.15,NE,45,6.9,6.9,84,0.00,,,0.00,WUHU216HW,2013-01-15 13:35:00,
2013-01-15 08:00:00,29.5,25.8,30.14,NNE,23,6.9,6.9,86,0.00,,,0.00,WUHU216HW,2013-01-15 14:00:00,
2013-01-15 08:05:00,29.5,25.8,30.14,NNE,23,6.9,6.9,86,0.00,,,0.00,WUHU216HW,2013-01-15 14:05:00,
2013-01-15 08:30:00,29.7,26.0,30.14,ENE,68,6.7,6.7,86,0.00,,,0.00,WUHU216HW,2013-01-15 14:30:00,
2013-01-15 08:35:00,29.7,26.0,30.14,ENE,68,6.7,6.7,86,0.00,,,0.00,WUHU216HW,2013-01-15 14:35:00,
2013-01-15 09:00:00,29.9,26.2,30.13,NE,45,6.9,6.9,86,0.00,,,0.00,WUHU216HW,2013-01-15 15:00:00,
2013-01-15 09:05:00,29.9,26.2,30.13,NE,45,6.9,6.9,86,0.00,,,0.00,WUHU216HW,2013-01-15 15:05:00,
2013-01-15 09:30:00,30.2,26.6,30.12,ENE,68,6.5,6.5,86,0.00,,,0.00,WUHU216HW,2013-01-15 15:30:00,
2013-01-15 09:35:00,30.2,26.6,30.12,ENE,68,6.5,6.5,86,0.00,,,0.00,WUHU216HW,2013-01-15 15:35:00,
2013-01-15 10:00:00,31.0,27.0,30.13,NNW,338,4.9,4.9,85,0.00,,,0.00,WUHU216HW,2013-01-15 16:00:00,
2013-01-15 10:05:00,31.0,27.0,30.13,NNW,338,4.9,4.9,85,0.00,,,0.00,WUHU216HW,2013-01-15 16:05:00,
2013-01-15 10:30:00,31.5,28.1,30.12,NNE,23,6.0,6.0,87,0.00,,,0.00,WUHU216HW,2013-01-15 16:30:00,
2013-01-15 10:35:00,31.5,28.1,30.12,NNE,23,6.0,6.0,87,0.00,,,0.00,WUHU216HW,2013-01-15 16:35:00,
2013-01-15 11:00:00,32.2,28.8,30.11,NE,45,7.8,7.8,87,0.00,,,0.00,WUHU216HW,2013-01-15 17:00:00,
2013-01-15 11:05:00,32.2,28.8,30.11,NE,45,7.8,7.8,87,0.00,,,0.00,WUHU216HW,2013-01-15 17:05:00,
2013-01-15 11:30:00,32.6,29.4,30.10,ENE,68,8.5,8.5,88,0.00,,,0.00,WUHU216HW,2013-01-15 17:30:00,
2013-01-15 11:35:00,32.6,29.4,30.10,ENE,68,8.5,8.5,88,0.00,,,0.00,WUHU216HW,2013-01-15 17:35:00,
2013-01-15 12:00:00,32.9,29.4,30.10,NE,45,4.9,4.9,87,0.00,,,0.00,WUHU216HW,2013-01-15 18:00:00,
2013-01-15 12:05:00,32.9,29.4,30.10,NE,45,4.9,4.9,87,0.00,,,0.00,WUHU216HW,2013-01-15 18:05:00,
2013-01-15 12:30:00,33.5,30.0,30.10,NE,45,4.0,4.0,87,0.00,,,0.00,WUHU216HW,2013-01-15 18:30:00,
2013-01-15 12:35:00,33.5,30.0,30.10,NE,45,4.0,4.0,87,0.00,,,0.00,WUHU216HW,2013-01-15 18:35:00,
2013-01-15 13:00:00,33.5,29.7,30.08,NE,45,3.4,3.4,86,0.00,,,0.00,WUHU216HW,2013-01-15 19:00:00,
2013-01-15 13:05:00,33.5,29.7,30.08,NE,45,3.4,3.4,86,0.00,,,0.00,WUHU216HW,2013-01-15 19:05:00,
2013-01-15 13:30:00,33.5,29.7,30.08,North,0,2.9,2.9,86,0.00,,,0.00,WUHU216HW,2013-01-15 19:30:00,
2013-01-15 13:35:00,33.5,29.7,30.08,North,0,2.9,2.9,86,0.00,,,0.00,WUHU216HW,2013-01-15 19:35:00,
2013-01-15 14:00:00,33.5,29.7,30.09,NNE,23,2.7,2.7,86,0.00,,,0.00,WUHU216HW,2013-01-15 20:00:00,
2013-01-15 14:05:00,33.5,29.7,30.09,NNE,23,2.7,2.7,86,0.00,,,0.00,WUHU216HW,2013-01-15 20:05:00,
2013-01-15 14:30:00,33.7,30.2,30.08,NNE,23,3.4,3.4,87,0.00,,,0.00,WUHU216HW,2013-01-15 20:30:00,
2013-01-15 14:35:00,33.7,30.2,30.08,NNE,23,3.4,3.4,87,0.00,,,0.00,WUHU216HW,2013-01-15 20:35:00,
2013-01-15 15:00:00,33.8,30.6,30.09,NNW,338,4.3,4.3,88,0.00,,,0.00,WUHU216HW,2013-01-15 21:00:00,
2013-01-15 15:05:00,33.8,30.6,30.09,NNW,338,4.3,4.3,88,0.00,,,0.00,WUHU216HW,2013-01-15 21:05:00,
2013-01-15 15:30:00,33.7,30.2,30.10,North,0,4.0,4.0,87,0.01,,,0.01,WUHU216HW,2013-01-15 21:30:00,
2013-01-15 15:35:00,33.7,30.2,30.10,North,0,4.0,4.0,87,0.01,,,0.01,WUHU216HW,2013-01-15 21:35:00,
2013-01-15 16:00:00,34.2,30.6,30.11,North,0,2.5,2.5,87,0.01,,,0.02,WUHU216HW,2013-01-15 22:00:00,
2013-01-15 16:05:00,34.2,30.6,30.11,North,0,2.5,2.5,87,0.01,,,0.02,WUHU216HW,2013-01-15 22:05:00,
2013-01-15 16:30:00,34.6,30.7,30.11,NE,45,6.3,6.3,86,0.01,,,0.03,WUHU216HW,2013-01-15 22:30:00,
2013-01-15 16:35:00,34.6,30.7,30.11,NE,45,6.3,6.3,86,0.01,,,0.03,WUHU216HW,2013-01-15 22:35:00,
2013-01-15 17:00:00,35.1,31.0,30.12,NE,45,1.8,1.8,85,0.01,,,0.04,WUHU216HW,2013-01-15 23:00:00,
2013-01-15 17:05:00,35.1,31.0,30.12,NE,45,1.8,1.8,85,0.01,,,0.04,WUHU216HW,2013-01-15 23:05:00,
2013-01-15 17:30:00,35.5,31.3,30.10,North,0,1.6,1.6,85,0.00,,,0.05,WUHU216HW,2013-01-15 23:30:00,
2013-01-15 17:35:00,35.5,31.3,30.10,North,0,1.6,1.6,85,0.00,,,0.05,WUHU216HW,2013-01-15 23:35:00,
2013-01-15 18:00:00,35.6,31.0,30.12,NNW,338,2.5,2.5,83,0.00,,,0.05,WUHU216HW,2013-01-16 00:00:00,
2013-01-15 18:05:00,35.6,31.0,30.12,NNW,338,2.5,2.5,83,0.00,,,0.05,WUHU216HW,2013-01-16 00:05:00,
2013-01-15 18:30:00,35.6,30.1,30.14,NNW,338,3.4,3.4,80,0.00,,,0.05,WUHU216HW,2013-01-16 00:30:00,
2013-01-15 18:35:00,35.6,30.1,30.14,NNW,338,3.4,3.4,80,0.00,,,0.05,WUHU216HW,2013-01-16 00:35:00,
2013-01-15 19:00:00,35.6,30.1,30.14,NW,315,2.2,2.2,80,0.01,,,0.06,WUHU216HW,2013-01-16 01:00:00,
2013-01-15 19:05:00,35.6,30.1,30.14,NW,315,2.2,2.2,80,0.01,,,0.06,WUHU216HW,2013-01-16 01:05:00,
2013-01-15 19:30:00,35.8,29.9,30.14,NNW,338,2.5,2.5,79,0.00,,,0.06,WUHU216HW,2013-01-16 01:30:00,
2013-01-15 19:35:00,35.8,29.9,30.14,NNW,338,2.5,2.5,79,0.00,,,0.06,WUHU216HW,2013-01-16 01:35:00,
2013-01-15 20:00:00,35.6,29.4,30.14,NW,315,4.5,4.5,78,0.00,,,0.06,WUHU216HW,2013-01-16 02:00:00,
2013-01-15 20:05:00,35.6,29.4,30.14,NW,315,4.5,4.5,78,0.00,,,0.06,WUHU216HW,2013-01-16 02:05:00,
2013-01-15 20:30:00,35.6,29.4,30.14,North,0,2.5,2.5,78,0.00,,,0.06,WUHU216HW,2013-01-16 02:30:00,
2013-01-15 20:35:00,35.6,29.4,30.14,North,0,2.5,2.5,78,0.00,,,0.06,WUHU216HW,2013-01-16 02:35:00,
2013-01-15 21:00:00,35.6,29.4,30.15,North,0,3.4,3.4,78,0.01,,,0.07,WUHU216HW,2013-01-16 03:00:00,
2013-01-15 21:05:00,35.6,29.4,30.15,North,0,3.4,3.4,78,0.01,,,0.07,WUHU216HW,2013-01-16 03:05:00,
2013-01-15 21:30:00,35.6,29.4,30.14,NW,315,1.8,1.8,78,0.00,,,0.07,WUHU216HW,2013-01-16 03:30:00,
2013-01-15 21:35:00,35.6,29.4,30.14,NW,315,1.8,1.8,78,0.00,,,0.07,WUHU216HW,2013-01-16 03:35:00,
2013-01-15 22:00:00,34.9,28.7,30.14,NNW,338,1.3,1.3,78,0.00,,,0.07,WUHU216HW,2013-01-16 04:00:00,
2013-01-15 22:05:00,34.9,28.7,30.14,NNW,338,1.3,1.3,78,0.00,,,0.07,WUHU216HW,2013-01-16 04:05:00,
2013-01-15 22:30:00,34.2,27.6,30.13,NNW,338,5.8,5.8,77,0.00,,,0.07,WUHU216HW,2013-01-16 04:30:00,
2013-01-15 22:35:00,34.2,27.6,30.13,NNW,338,5.8,5.8,77,0.00,,,0.07,WUHU216HW,2013-01-16 04:35:00,
2013-01-15 23:00:00,33.5,26.0,30.12,NW,315,2.9,2.9,74,0.00,,,0.07,WUHU216HW,2013-01-16 05:00:00,
2013-01-15 23:01:00,33.5,26.0,30.12,NW,315,2.9,2.9,74,0.00,,,0.07,WUHU216HW,2013-01-16 05:01:00,
2013-01-15 23:06:00,33.5,26.0,30.12,NW,315,2.9,2.9,74,0.00,,,0.07,WUHU216HW,2013-01-16 05:06:00,
2013-01-15 23:30:00,32.8,25.0,30.12,North,0,2.0,2.0,73,0.00,,,0.07,WUHU216HW,2013-01-16 05:30:00,
2013-01-15 23:35:00,32.8,25.0,30.12,North,0,2.0,2.0,73,0.00,,,0.07,WUHU216HW,2013-01-16 05:35:00,